createdAt,value
2018-06-19T00:00:10.566Z,4.40
2018-06-19T00:02:22.921Z,4.30
2018-06-19T00:04:35.323Z,4.37
2018-06-19T00:06:47.747Z,4.27
2018-06-19T00:09:00.229Z,4.10
2018-06-19T00:11:12.745Z,4.20
2018-06-19T00:13:25.163Z,4.67
2018-06-19T00:15:37.598Z,4.20
2018-06-19T00:17:54.157Z,4.50
2018-06-19T00:20:06.606Z,4.17
2018-06-19T00:22:18.998Z,4.50
2018-06-19T00:24:31.463Z,4.23
2018-06-19T00:26:43.939Z,4.30
2018-06-19T00:28:56.460Z,4.60
2018-06-19T00:31:09.001Z,4.23
2018-06-19T00:33:21.467Z,3.93
2018-06-19T00:35:33.824Z,4.83
2018-06-19T00:37:46.232Z,4.80
2018-06-19T00:39:58.694Z,4.37
2018-06-19T00:42:11.130Z,4.70
2018-06-19T00:44:23.486Z,4.37
2018-06-19T00:46:37.831Z,4.20
2018-06-19T00:48:50.291Z,4.37
2018-06-19T00:51:02.627Z,4.23
2018-06-19T00:53:14.988Z,4.83
2018-06-19T00:55:27.449Z,4.70
2018-06-19T00:57:39.842Z,4.77
2018-06-19T00:59:52.287Z,4.30
2018-06-19T01:02:04.690Z,4.30
2018-06-19T01:04:17.086Z,4.53
2018-06-19T01:06:29.506Z,4.83
2018-06-19T01:08:41.924Z,3.80
2018-06-19T01:10:54.316Z,4.37
2018-06-19T01:13:06.705Z,4.20
2018-06-19T01:15:19.095Z,4.50
2018-06-19T01:17:31.485Z,4.47
2018-06-19T01:19:44.030Z,4.50
2018-06-19T01:21:56.410Z,4.90
2018-06-19T01:24:08.753Z,4.67
2018-06-19T01:26:21.152Z,4.70
2018-06-19T01:28:33.528Z,4.63
2018-06-19T01:30:46.002Z,4.67
2018-06-19T01:32:58.323Z,4.43
2018-06-19T01:35:10.976Z,4.60
2018-06-19T01:37:23.403Z,4.70
2018-06-19T01:39:35.838Z,4.67
2018-06-19T01:41:48.279Z,4.43
2018-06-19T01:44:00.709Z,4.80
2018-06-19T01:46:13.089Z,4.50
2018-06-19T01:48:25.422Z,4.43
2018-06-19T01:50:37.826Z,4.40
2018-06-19T01:52:50.494Z,5.00
2018-06-19T01:55:02.946Z,4.90
2018-06-19T01:57:15.437Z,4.40
2018-06-19T01:59:27.823Z,4.70
2018-06-19T02:01:40.290Z,4.70
2018-06-19T02:03:52.633Z,5.50
2018-06-19T02:06:05.178Z,4.83
2018-06-19T02:08:17.553Z,4.80
2018-06-19T02:10:29.881Z,5.70
2018-06-19T02:12:42.260Z,4.37
2018-06-19T02:14:54.590Z,4.67
2018-06-19T02:17:07.135Z,5.00
2018-06-19T02:19:19.569Z,5.00
2018-06-19T02:21:31.946Z,5.30
2018-06-19T02:23:44.306Z,4.70
2018-06-19T02:25:56.699Z,4.57
2018-06-19T02:28:09.098Z,5.33
2018-06-19T02:30:21.563Z,5.30
2018-06-19T02:32:34.041Z,4.83
2018-06-19T02:34:46.409Z,5.37
2018-06-19T02:36:58.873Z,5.67
2018-06-19T02:39:11.942Z,5.80
2018-06-19T02:41:24.339Z,4.90
2018-06-19T02:43:36.883Z,5.07
2018-06-19T02:45:49.252Z,5.53
2018-06-19T02:48:01.751Z,4.83
2018-06-19T02:50:14.194Z,4.20
2018-06-19T02:52:26.531Z,4.87
2018-06-19T02:54:39.078Z,4.97
2018-06-19T02:56:51.568Z,5.70
2018-06-19T02:59:04.036Z,5.13
2018-06-19T03:01:16.553Z,5.67
2018-06-19T03:03:28.892Z,5.77
2018-06-19T03:05:41.306Z,5.70
2018-06-19T03:07:53.754Z,5.67
2018-06-19T03:10:06.162Z,5.17
2018-06-19T03:12:18.530Z,4.87
2018-06-19T03:14:30.902Z,5.23
2018-06-19T03:16:43.263Z,4.73
2018-06-19T03:18:55.688Z,5.77
2018-06-19T03:21:08.210Z,4.83
2018-06-19T03:23:20.599Z,5.10
2018-06-19T03:25:33.113Z,5.33
2018-06-19T03:27:45.508Z,4.67
2018-06-19T03:29:58.104Z,5.40
2018-06-19T03:32:10.479Z,5.17
2018-06-19T03:34:22.903Z,5.37
2018-06-19T03:36:35.322Z,5.30
2018-06-19T03:38:47.795Z,5.40
2018-06-19T03:41:00.187Z,4.73
2018-06-19T03:43:12.635Z,5.20
2018-06-19T03:45:25.162Z,5.27
2018-06-19T03:47:37.671Z,5.23
2018-06-19T03:49:50.086Z,4.67
2018-06-19T03:52:02.523Z,5.17
2018-06-19T03:54:14.862Z,3.80
2018-06-19T03:56:27.324Z,5.00
2018-06-19T03:58:39.651Z,5.70
2018-06-19T04:00:52.188Z,5.60
2018-06-19T04:03:04.841Z,5.40
2018-06-19T04:05:17.236Z,4.80
2018-06-19T04:07:29.649Z,5.40
2018-06-19T04:09:42.087Z,5.10
2018-06-19T04:11:54.459Z,4.03
2018-06-19T04:14:06.852Z,4.50
2018-06-19T04:16:19.179Z,4.77
2018-06-19T04:18:31.659Z,5.63
2018-06-19T04:20:44.014Z,4.73
2018-06-19T04:22:56.322Z,5.40
2018-06-19T04:25:08.949Z,4.57
2018-06-19T04:27:21.526Z,4.63
2018-06-19T04:29:33.910Z,4.77
2018-06-19T04:31:46.288Z,4.77
2018-06-19T04:33:58.606Z,5.13
2018-06-19T04:36:11.052Z,4.93
2018-06-19T04:38:23.426Z,4.67
2018-06-19T04:40:35.810Z,2.70
2018-06-19T04:42:48.211Z,4.50
2018-06-19T04:45:00.683Z,5.73
2018-06-19T04:47:13.073Z,5.80
2018-06-19T04:49:25.472Z,4.53
2018-06-19T04:51:37.858Z,5.67
2018-06-19T04:53:50.275Z,5.10
2018-06-19T04:56:02.718Z,5.00
2018-06-19T04:58:15.190Z,4.47
2018-06-19T05:00:27.558Z,3.67
2018-06-19T05:02:39.946Z,4.23
2018-06-19T05:04:52.625Z,4.00
2018-06-19T05:07:05.113Z,5.80
2018-06-19T05:09:17.483Z,6.13
2018-06-19T05:11:29.894Z,5.17
2018-06-19T05:13:42.306Z,5.63
2018-06-19T05:15:54.722Z,4.27
2018-06-19T05:18:07.095Z,4.30
2018-06-19T05:20:19.508Z,4.70
2018-06-19T05:22:31.789Z,4.67
2018-06-19T05:24:44.193Z,4.60
2018-06-19T05:26:56.630Z,4.80
2018-06-19T05:29:10.050Z,4.70
2018-06-19T05:31:22.490Z,4.40
2018-06-19T05:33:35.081Z,4.40
2018-06-19T05:35:47.433Z,4.50
2018-06-19T05:37:59.781Z,4.80
2018-06-19T05:40:12.375Z,4.50
2018-06-19T05:42:24.710Z,4.37
2018-06-19T05:44:37.084Z,4.10
2018-06-19T05:46:49.502Z,3.87
2018-06-19T05:49:01.893Z,3.63
2018-06-19T05:51:14.347Z,3.67
2018-06-19T05:53:26.717Z,3.40
2018-06-19T05:55:39.269Z,3.13
2018-06-19T05:57:51.666Z,3.50
2018-06-19T06:00:04.399Z,3.27
2018-06-19T06:02:16.711Z,3.43
2018-06-19T06:04:29.115Z,3.03
2018-06-19T06:06:41.542Z,2.70
2018-06-19T06:08:53.997Z,2.70
2018-06-19T06:11:06.456Z,3.20
2018-06-19T06:13:18.834Z,3.40
2018-06-19T06:15:31.206Z,3.40
2018-06-19T06:17:43.554Z,3.50
2018-06-19T06:19:55.946Z,3.37
2018-06-19T06:22:08.384Z,3.47
2018-06-19T06:24:20.754Z,3.27
2018-06-19T06:26:33.115Z,2.93
2018-06-19T06:28:45.599Z,2.80
2018-06-19T06:30:57.909Z,3.03
2018-06-19T06:33:10.238Z,3.27
2018-06-19T06:35:22.701Z,3.90
2018-06-19T06:37:35.082Z,3.17
2018-06-19T06:39:47.462Z,3.47
2018-06-19T06:41:59.788Z,3.63
2018-06-19T06:44:12.181Z,3.50
2018-06-19T06:46:25.411Z,3.70
2018-06-19T06:48:37.722Z,3.70
2018-06-19T06:50:50.073Z,3.47
2018-06-19T06:53:02.483Z,3.20
2018-06-19T06:55:14.886Z,3.23
2018-06-19T06:57:27.215Z,3.10
2018-06-19T06:59:40.544Z,3.00
2018-06-19T07:01:52.967Z,3.10
2018-06-19T07:04:05.724Z,3.57
2018-06-19T07:06:18.138Z,3.00
2018-06-19T07:08:30.512Z,3.63
2018-06-19T07:10:43.204Z,3.40
2018-06-19T07:12:55.709Z,3.10
2018-06-19T07:15:09.033Z,3.07
2018-06-19T07:17:23.334Z,3.37
2018-06-19T07:19:35.818Z,2.63
2018-06-19T07:21:49.870Z,2.93
2018-06-19T07:24:02.241Z,2.80
2018-06-19T07:26:14.641Z,2.57
2018-06-19T07:28:27.174Z,2.97
2018-06-19T07:30:43.303Z,2.23
2018-06-19T07:32:57.574Z,2.53
2018-06-19T07:35:09.876Z,2.20
2018-06-19T07:37:22.239Z,2.20
2018-06-19T07:39:34.573Z,2.63
2018-06-19T07:41:46.982Z,2.33
2018-06-19T07:43:59.471Z,2.30
2018-06-19T07:46:11.942Z,2.33
2018-06-19T07:48:24.313Z,2.27
2018-06-19T07:50:39.611Z,2.33
2018-06-19T07:52:53.815Z,2.13
2018-06-19T07:55:06.231Z,2.03
2018-06-19T07:57:18.635Z,2.87
2018-06-19T07:59:30.966Z,2.70
2018-06-19T08:01:44.077Z,2.33
2018-06-19T08:03:56.466Z,2.47
2018-06-19T08:06:08.836Z,2.50
2018-06-19T08:08:21.234Z,2.70
2018-06-19T08:10:33.751Z,2.73
2018-06-19T08:12:46.885Z,2.10
2018-06-19T08:14:59.338Z,2.20
2018-06-19T08:17:11.670Z,2.10
2018-06-19T08:19:23.999Z,2.87
2018-06-19T08:21:39.162Z,2.30
2018-06-19T08:23:51.614Z,2.77
2018-06-19T08:26:04.170Z,2.17
2018-06-19T08:28:16.610Z,2.50
2018-06-19T08:30:29.013Z,2.50
2018-06-19T08:32:41.518Z,2.20
2018-06-19T08:34:53.921Z,1.90
2018-06-19T08:37:06.293Z,1.97
2018-06-19T08:39:18.720Z,2.20
2018-06-19T08:41:31.107Z,2.13
2018-06-19T08:43:43.535Z,2.00
2018-06-19T08:45:57.750Z,1.80
2018-06-19T08:48:10.130Z,2.10
2018-06-19T08:50:22.547Z,1.93
2018-06-19T08:52:34.931Z,2.20
2018-06-19T08:54:47.336Z,2.13
2018-06-19T08:56:59.715Z,2.27
2018-06-19T08:59:12.089Z,2.20
2018-06-19T09:01:24.514Z,2.20
2018-06-19T09:03:36.866Z,1.90
2018-06-19T09:05:49.357Z,2.00
2018-06-19T09:08:01.871Z,2.30
2018-06-19T09:10:14.202Z,2.23
2018-06-19T09:12:26.529Z,2.13
2018-06-19T09:14:38.900Z,3.10
2018-06-19T09:16:51.412Z,2.17
2018-06-19T09:19:04.917Z,2.00
2018-06-19T09:21:17.383Z,2.33
2018-06-19T09:23:29.947Z,2.13
2018-06-19T09:25:42.310Z,2.37
2018-06-19T09:27:54.906Z,1.97
2018-06-19T09:30:07.276Z,2.13
2018-06-19T09:32:20.023Z,1.97
2018-06-19T09:34:32.398Z,2.30
2018-06-19T09:36:44.751Z,2.10
2018-06-19T09:38:57.746Z,1.83
2018-06-19T09:41:10.335Z,1.70
2018-06-19T09:43:22.751Z,2.10
2018-06-19T09:45:35.096Z,2.10
2018-06-19T09:47:47.527Z,1.90
2018-06-19T09:49:59.995Z,2.10
2018-06-19T09:52:12.428Z,2.10
2018-06-19T09:54:25.894Z,2.07
2018-06-19T09:56:38.513Z,2.10
2018-06-19T09:58:51.003Z,2.33
2018-06-19T10:01:03.516Z,2.20
2018-06-19T10:03:15.981Z,2.20
2018-06-19T10:05:29.086Z,2.10
2018-06-19T10:07:41.514Z,1.83
2018-06-19T10:09:53.847Z,1.97
2018-06-19T10:12:06.261Z,2.10
2018-06-19T10:14:18.633Z,2.07
2018-06-19T10:16:31.026Z,1.90
2018-06-19T10:18:43.411Z,2.03
2018-06-19T10:20:55.767Z,1.73
2018-06-19T10:23:08.201Z,1.80
2018-06-19T10:25:22.515Z,2.13
2018-06-19T10:27:35.294Z,2.00
2018-06-19T10:29:47.757Z,2.03
2018-06-19T10:32:00.190Z,1.90
2018-06-19T10:34:12.585Z,2.10
2018-06-19T10:36:24.972Z,2.20
2018-06-19T10:38:37.302Z,2.37
2018-06-19T10:40:49.741Z,2.37
2018-06-19T10:43:02.118Z,1.93
2018-06-19T10:45:14.515Z,2.00
2018-06-19T10:47:27.890Z,1.40
2018-06-19T10:49:40.304Z,2.23
2018-06-19T10:51:52.640Z,1.60
2018-06-19T10:54:05.031Z,2.17
2018-06-19T10:56:17.518Z,1.90
2018-06-19T10:58:29.869Z,1.87
2018-06-19T11:00:42.246Z,1.80
2018-06-19T11:02:55.465Z,1.80
2018-06-19T11:05:07.827Z,2.17
2018-06-19T11:07:25.754Z,1.67
2018-06-19T11:09:38.181Z,2.03
2018-06-19T11:11:50.568Z,2.07
2018-06-19T11:14:03.134Z,2.10
2018-06-19T11:16:15.631Z,1.93
2018-06-19T11:18:28.053Z,1.97
2018-06-19T11:20:40.430Z,2.07
2018-06-19T11:22:53.012Z,1.93
2018-06-19T11:25:05.443Z,1.90
2018-06-19T11:27:18.135Z,1.83
2018-06-19T11:29:30.481Z,1.70
2018-06-19T11:31:42.916Z,1.80
2018-06-19T11:33:55.311Z,1.60
2018-06-19T11:36:07.739Z,1.53
2018-06-19T11:38:20.347Z,1.50
2018-06-19T11:40:32.664Z,1.77
2018-06-19T11:42:45.198Z,1.90
2018-06-19T11:44:57.618Z,1.93
2018-06-19T11:47:10.106Z,1.80
2018-06-19T11:49:22.564Z,1.87
2018-06-19T11:51:34.935Z,2.00
2018-06-19T11:53:47.327Z,1.60
2018-06-19T11:56:00.595Z,1.80
2018-06-19T11:58:13.049Z,1.50
2018-06-19T12:00:25.555Z,1.70
2018-06-19T12:02:37.991Z,1.80
2018-06-19T12:04:50.357Z,1.80
2018-06-19T12:07:02.827Z,1.80
2018-06-19T12:09:15.230Z,1.80
2018-06-19T12:11:27.992Z,1.50
2018-06-19T12:13:40.443Z,1.40
2018-06-19T12:15:52.897Z,1.70
2018-06-19T12:18:05.478Z,1.80
2018-06-19T12:20:18.013Z,1.47
2018-06-19T12:22:30.524Z,1.30
2018-06-19T12:24:43.046Z,1.90
2018-06-19T12:26:55.548Z,1.30
2018-06-19T12:29:08.061Z,1.40
2018-06-19T12:31:20.486Z,1.77
2018-06-19T12:33:33.025Z,1.40
2018-06-19T12:35:46.368Z,1.73
2018-06-19T12:37:58.874Z,1.70
2018-06-19T12:40:11.246Z,1.30
2018-06-19T12:42:23.805Z,1.67
2018-06-19T12:44:36.260Z,1.83
2018-06-19T12:46:53.335Z,2.20
2018-06-19T12:49:06.579Z,1.60
2018-06-19T12:51:57.242Z,1.43
2018-06-19T12:56:25.599Z,1.50
2018-06-19T12:58:38.234Z,1.67
2018-06-19T13:00:50.629Z,1.60
2018-06-19T13:03:16.526Z,1.80
2018-06-19T13:05:40.535Z,1.53
2018-06-19T13:07:55.791Z,1.43
2018-06-19T13:10:08.186Z,1.90
2018-06-19T13:12:32.112Z,1.63
2018-06-19T13:14:44.492Z,1.50
2018-06-19T13:17:10.204Z,1.93
2018-06-19T13:19:34.024Z,1.20
2018-06-19T13:21:46.405Z,1.70
2018-06-19T13:23:58.799Z,1.53
2018-06-19T13:26:11.183Z,1.50
2018-06-19T13:28:34.971Z,1.70
2018-06-19T13:30:58.691Z,1.70
2018-06-19T13:33:11.042Z,1.93
2018-06-19T13:35:23.594Z,1.67
2018-06-19T13:37:35.932Z,1.67
2018-06-19T13:41:19.902Z,1.53
2018-06-19T13:43:44.011Z,1.50
2018-06-19T13:45:56.428Z,1.57
2018-06-19T13:48:08.824Z,1.70
2018-06-19T13:50:22.222Z,1.50
2018-06-19T13:52:34.585Z,1.50
2018-06-19T13:54:49.967Z,1.30
2018-06-19T13:57:21.036Z,1.40
2018-06-19T13:59:33.457Z,1.53
2018-06-19T14:01:46.021Z,1.27
2018-06-19T14:03:58.330Z,1.77
2018-06-19T14:06:10.691Z,1.27
2018-06-19T14:10:35.895Z,1.40
2018-06-19T14:13:03.739Z,1.27
2018-06-19T14:15:16.203Z,1.33
2018-06-19T14:17:31.517Z,1.53
2018-06-19T14:19:43.894Z,1.40
2018-06-19T14:21:56.320Z,1.20
2018-06-19T14:24:08.775Z,1.53
2018-06-19T14:26:21.211Z,1.27
2018-06-19T14:28:33.691Z,1.20
2018-06-19T14:30:46.058Z,1.30
2018-06-19T14:32:58.723Z,1.07
2018-06-19T14:35:11.386Z,1.50
2018-06-19T14:37:23.718Z,1.27
2018-06-19T14:39:36.134Z,1.37
2018-06-19T14:41:48.578Z,1.40
2018-06-19T14:44:00.979Z,1.50
2018-06-19T14:46:13.371Z,1.23
2018-06-19T14:48:25.821Z,1.70
2018-06-19T14:50:38.205Z,1.70
2018-06-19T14:52:57.367Z,1.20
2018-06-19T14:55:11.090Z,1.17
2018-06-19T14:57:26.375Z,1.43
2018-06-19T14:59:38.829Z,1.27
2018-06-19T15:01:51.211Z,1.17
2018-06-19T15:04:03.706Z,1.40
2018-06-19T15:06:16.109Z,1.17
2018-06-19T15:08:29.562Z,1.50
2018-06-19T15:10:43.866Z,1.03
2018-06-19T15:12:56.325Z,1.47
2018-06-19T15:15:08.701Z,1.40
2018-06-19T15:17:21.946Z,1.43
2018-06-19T15:19:34.430Z,1.20
2018-06-19T15:21:47.130Z,1.50
2018-06-19T15:23:59.577Z,1.10
2018-06-19T15:26:12.087Z,1.33
2018-06-19T15:28:24.526Z,1.40
2018-06-19T15:30:37.918Z,1.30
2018-06-19T15:32:50.405Z,1.30
2018-06-19T15:35:02.818Z,1.33
2018-06-19T15:37:17.054Z,1.30
2018-06-19T15:39:29.541Z,1.50
2018-06-19T15:41:42.342Z,1.47
2018-06-19T15:43:54.850Z,1.40
2018-06-19T15:46:07.358Z,1.70
2018-06-19T15:48:26.854Z,1.43
2018-06-19T15:50:39.249Z,1.50
2018-06-19T15:52:51.590Z,1.50
2018-06-19T15:55:04.028Z,1.60
2018-06-19T15:57:16.598Z,1.20
2018-06-19T15:59:29.000Z,1.60
2018-06-19T16:01:41.580Z,1.63
2018-06-19T16:03:54.608Z,1.27
2018-06-19T16:06:07.269Z,1.50
2018-06-19T16:08:19.854Z,1.40
2018-06-19T16:10:32.354Z,1.40
2018-06-19T16:12:44.772Z,1.70
2018-06-19T16:14:57.130Z,1.57
2018-06-19T16:17:09.535Z,1.50
2018-06-19T16:19:21.934Z,1.40
2018-06-19T16:21:34.685Z,1.50
2018-06-19T16:23:47.309Z,1.10
2018-06-19T16:25:59.702Z,1.27
2018-06-19T16:28:12.199Z,1.10
2018-06-19T16:30:24.577Z,1.70
2018-06-19T16:32:36.966Z,1.77
2018-06-19T16:34:49.375Z,1.73
2018-06-19T16:37:01.831Z,1.50
2018-06-19T16:39:14.223Z,1.50
2018-06-19T16:41:26.747Z,1.53
2018-06-19T16:43:39.168Z,1.40
2018-06-19T16:45:51.650Z,1.90
2018-06-19T16:48:04.086Z,1.50
2018-06-19T16:50:16.492Z,1.80
2018-06-19T16:52:29.038Z,1.90
2018-06-19T16:54:41.415Z,1.77
2018-06-19T16:56:53.809Z,1.80
2018-06-19T16:59:06.186Z,1.73
2018-06-19T17:01:18.597Z,1.63
2018-06-19T17:03:30.938Z,1.53
2018-06-19T17:05:44.182Z,1.73
2018-06-19T17:07:56.545Z,1.70
2018-06-19T17:10:09.469Z,1.87
2018-06-19T17:12:21.818Z,1.47
2018-06-19T17:14:34.371Z,1.60
2018-06-19T17:16:46.799Z,1.80
2018-06-19T17:18:59.418Z,1.93
2018-06-19T17:21:11.792Z,1.90
2018-06-19T17:23:24.210Z,1.70
2018-06-19T17:25:36.719Z,1.93
2018-06-19T17:27:49.076Z,1.90
2018-06-19T17:30:01.640Z,2.00
2018-06-19T17:32:14.022Z,1.93
2018-06-19T17:34:26.404Z,1.83
2018-06-19T17:36:38.854Z,2.20
2018-06-19T17:38:51.245Z,2.13
2018-06-19T17:43:16.198Z,2.47
2018-06-19T17:45:28.572Z,2.37
2018-06-19T17:47:40.965Z,2.40
2018-06-19T17:49:53.449Z,2.40
2018-06-19T17:52:05.906Z,2.33
2018-06-19T17:54:18.288Z,2.10
2018-06-19T17:56:30.651Z,2.40
2018-06-19T17:58:43.067Z,2.10
2018-06-19T18:00:55.665Z,2.10
2018-06-19T18:03:08.028Z,1.87
2018-06-19T18:05:20.382Z,2.30
2018-06-19T18:07:32.873Z,2.50
2018-06-19T18:09:45.287Z,2.30
2018-06-19T18:11:57.757Z,2.27
2018-06-19T18:14:10.148Z,2.70
2018-06-19T18:16:22.514Z,2.33
2018-06-19T18:18:34.893Z,2.07
2018-06-19T18:20:47.519Z,2.00
2018-06-19T18:23:00.002Z,2.00
2018-06-19T18:25:12.390Z,2.43
2018-06-19T18:27:24.755Z,2.40
2018-06-19T18:29:37.191Z,2.60
2018-06-19T18:31:49.713Z,2.40
2018-06-19T18:34:02.218Z,2.40
2018-06-19T18:36:14.583Z,2.40
2018-06-19T18:38:27.089Z,2.63
2018-06-19T18:40:39.539Z,2.40
2018-06-19T18:42:52.004Z,2.30
2018-06-19T18:45:04.427Z,2.50
2018-06-19T18:47:16.996Z,2.70
2018-06-19T18:49:29.348Z,2.40
2018-06-19T18:51:41.718Z,2.30
2018-06-19T18:53:54.065Z,2.27
2018-06-19T18:56:06.390Z,2.40
2018-06-19T18:58:18.781Z,2.57
2018-06-19T19:00:31.253Z,2.20
2018-06-19T19:02:43.642Z,2.60
2018-06-19T19:04:56.123Z,2.27
2018-06-19T19:07:08.426Z,2.30
2018-06-19T19:09:20.825Z,2.70
2018-06-19T19:11:33.272Z,2.67
2018-06-19T19:13:45.963Z,2.80
2018-06-19T19:16:04.090Z,2.50
2018-06-19T19:18:22.024Z,2.77
2018-06-19T19:20:34.478Z,2.77
2018-06-19T19:22:46.858Z,2.80
2018-06-19T19:24:59.294Z,2.97
2018-06-19T19:27:17.345Z,2.20
2018-06-19T19:29:35.326Z,2.80
2018-06-19T19:31:47.735Z,2.63
2018-06-19T19:34:00.243Z,3.00
2018-06-19T19:36:18.149Z,2.70
2018-06-19T19:38:36.128Z,2.93
2018-06-19T19:40:48.661Z,3.03
2018-06-19T19:43:01.026Z,2.77
2018-06-19T19:45:13.458Z,2.80
2018-06-19T19:47:31.582Z,3.53
2018-06-19T19:49:44.001Z,3.20
2018-06-19T19:51:56.496Z,3.60
2018-06-19T19:54:08.942Z,3.13
2018-06-19T19:56:26.904Z,2.77
2018-06-19T19:58:44.785Z,3.53
2018-06-19T20:00:57.442Z,3.63
2018-06-19T20:03:09.916Z,2.60
2018-06-19T20:05:22.367Z,3.07
2018-06-19T20:07:34.854Z,3.50
2018-06-19T20:09:47.314Z,3.50
2018-06-19T20:11:59.690Z,3.40
2018-06-19T20:14:12.165Z,4.20
2018-06-19T20:16:25.214Z,4.33
2018-06-19T20:18:37.685Z,4.80
2018-06-19T20:20:50.167Z,4.50
2018-06-19T20:23:02.604Z,3.90
2018-06-19T20:25:15.038Z,3.80
2018-06-19T20:27:27.421Z,3.97
2018-06-19T20:29:39.813Z,3.87
2018-06-19T20:31:52.254Z,4.87
2018-06-19T20:34:05.032Z,3.50
2018-06-19T20:36:17.489Z,4.70
2018-06-19T20:38:29.945Z,4.60
2018-06-19T20:40:42.374Z,4.40
2018-06-19T20:42:54.762Z,4.00
2018-06-19T20:45:07.243Z,4.20
2018-06-19T20:47:19.582Z,3.43
2018-06-19T20:49:32.310Z,3.73
2018-06-19T20:51:44.679Z,4.33
2018-06-19T20:53:57.073Z,4.47
2018-06-19T20:56:09.457Z,4.13
2018-06-19T20:58:22.661Z,4.10
2018-06-19T21:00:35.099Z,4.03
2018-06-19T21:02:47.501Z,4.23
2018-06-19T21:04:59.959Z,4.33
2018-06-19T21:07:12.474Z,4.50
2018-06-19T21:09:24.982Z,4.93
2018-06-19T21:11:37.504Z,3.97
2018-06-19T21:13:49.866Z,4.20
2018-06-19T21:16:02.416Z,3.80
2018-06-19T21:18:14.863Z,4.83
2018-06-19T21:20:27.187Z,4.90
2018-06-19T21:22:39.572Z,4.27
2018-06-19T21:24:51.964Z,4.80
2018-06-19T21:27:04.415Z,5.00
2018-06-19T21:29:16.813Z,4.43
2018-06-19T21:31:29.166Z,5.10
2018-06-19T21:33:41.647Z,4.93
2018-06-19T21:35:54.067Z,4.87
2018-06-19T21:38:06.574Z,4.53
2018-06-19T21:40:18.934Z,4.50
2018-06-19T21:42:31.335Z,4.93
2018-06-19T21:44:43.838Z,5.10
2018-06-19T21:46:56.469Z,4.73
2018-06-19T21:49:08.901Z,5.00
2018-06-19T21:51:21.279Z,5.17
2018-06-19T21:53:33.658Z,4.93
2018-06-19T21:55:46.069Z,4.97
2018-06-19T21:57:58.471Z,4.90
2018-06-19T22:00:11.576Z,5.50
2018-06-19T22:02:29.509Z,5.00
2018-06-19T22:04:42.042Z,5.27
2018-06-19T22:06:54.592Z,4.43
2018-06-19T22:09:07.051Z,4.50
2018-06-19T22:11:19.958Z,5.07
2018-06-19T22:13:32.601Z,5.13
2018-06-19T22:15:45.059Z,5.27
2018-06-19T22:17:57.471Z,4.47
2018-06-19T22:20:09.823Z,4.30
2018-06-19T22:22:22.257Z,4.60
2018-06-19T22:24:34.752Z,4.70
2018-06-19T22:26:47.175Z,5.60
2018-06-19T22:28:59.534Z,4.77
2018-06-19T22:31:11.979Z,4.87
2018-06-19T22:33:24.464Z,4.70
2018-06-19T22:35:36.806Z,4.77
2018-06-19T22:37:49.286Z,5.50
2018-06-19T22:40:01.720Z,6.50
2018-06-19T22:42:14.102Z,6.13
2018-06-19T22:44:26.698Z,5.27
2018-06-19T22:46:39.134Z,5.17
2018-06-19T22:48:51.529Z,4.60
2018-06-19T22:51:03.959Z,4.97
2018-06-19T22:53:16.327Z,5.17
2018-06-19T22:55:28.816Z,4.53
2018-06-19T22:57:41.158Z,4.90
2018-06-19T22:59:53.570Z,5.37
2018-06-19T23:02:06.172Z,5.07
2018-06-19T23:04:18.538Z,5.07
2018-06-19T23:06:30.935Z,4.40
2018-06-19T23:08:43.323Z,5.43
2018-06-19T23:10:55.674Z,4.80
2018-06-19T23:13:08.089Z,5.07
2018-06-19T23:15:20.657Z,4.30
2018-06-19T23:17:32.974Z,3.93
2018-06-19T23:19:45.422Z,4.87
2018-06-19T23:21:57.791Z,3.80
2018-06-19T23:24:10.269Z,5.00
2018-06-19T23:26:22.762Z,4.27
2018-06-19T23:28:35.102Z,3.90
2018-06-19T23:30:47.594Z,4.20
2018-06-19T23:33:00.051Z,4.70
2018-06-19T23:35:12.538Z,3.70
2018-06-19T23:37:24.953Z,4.40
2018-06-19T23:39:37.313Z,4.10
2018-06-19T23:41:49.751Z,4.27
2018-06-19T23:44:02.126Z,4.10
2018-06-19T23:46:14.662Z,4.30
2018-06-19T23:48:27.118Z,4.50
2018-06-19T23:50:39.643Z,4.30
2018-06-19T23:52:52.016Z,4.07
2018-06-19T23:55:04.394Z,5.10
2018-06-19T23:57:16.914Z,6.30
2018-06-19T23:59:29.226Z,4.27
